Sao Joao do Caiua, Brazil
Current Conditions -  °F | °C
As of 10:00 PM on Thursday 27 Nov 2014 (Local Time) from SBMG Reporting Station
Clear Clear  
Wind Chill: 72°   Ceiling: Unl
Heat Index: 72°   Visibility: 6mi
Dew Point: 68°   Wind: 10mph
Humidity: 88%   Direction: 110°ESE
Pressure: 29.88"   Gusts: NA
Location:  22.85°S, 52.34°W
Report Text: SBMG 280000Z 11009KT CAVOK 22/20 Q1012
Loading
Personal Weather Stations






























Interactive Weather Map New forecast layout! Learn more

10-Day Weather Forecast

Advertisements
Track Severe Weather on mobile